sensor_id;sensor_type;location;lat;lon;timestamp;temperature;humidity
19037;DHT22;9651;49.138;8.900;2023-06-24T00:01:51;18.10;99.90
19037;DHT22;9651;49.138;8.900;2023-06-24T00:05:53;18.20;99.90
19037;DHT22;9651;49.138;8.900;2023-06-24T00:09:57;18.20;99.90
19037;DHT22;9651;49.138;8.900;2023-06-24T00:14:00;18.10;99.90
19037;DHT22;9651;49.138;8.900;2023-06-24T00:18:02;18.10;99.90
19037;DHT22;9651;49.138;8.900;2023-06-24T00:22:06;18.00;99.90
19037;DHT22;9651;49.138;8.900;2023-06-24T00:26:08;17.90;99.90
19037;DHT22;9651;49.138;8.900;2023-06-24T00:30:12;17.70;99.90
19037;DHT22;9651;49.138;8.900;2023-06-24T00:34:14;17.60;99.90
19037;DHT22;9651;49.138;8.900;2023-06-24T00:38:16;17.50;99.90
19037;DHT22;9651;49.138;8.900;2023-06-24T00:42:18;17.60;99.90
19037;DHT22;9651;49.138;8.900;2023-06-24T00:46:22;17.60;99.90
19037;DHT22;9651;49.138;8.900;2023-06-24T00:50:26;17.50;99.90
19037;DHT22;9651;49.138;8.900;2023-06-24T00:54:28;17.50;99.90
19037;DHT22;9651;49.138;8.900;2023-06-24T00:58:32;17.40;99.90
19037;DHT22;9651;49.138;8.900;2023-06-24T01:02:39;17.30;99.90
19037;DHT22;9651;49.138;8.900;2023-06-24T01:06:42;17.20;99.90
19037;DHT22;9651;49.138;8.900;2023-06-24T01:10:45;17.20;99.90
19037;DHT22;9651;49.138;8.900;2023-06-24T01:14:47;17.00;99.90
19037;DHT22;9651;49.138;8.900;2023-06-24T01:18:54;16.90;99.90
19037;DHT22;9651;49.138;8.900;2023-06-24T01:23:34;16.90;99.90
19037;DHT22;9651;49.138;8.900;2023-06-24T01:28:07;17.00;99.90
19037;DHT22;9651;49.138;8.900;2023-06-24T01:32:19;17.00;99.90
19037;DHT22;9651;49.138;8.900;2023-06-24T01:36:24;16.90;99.90
19037;DHT22;9651;49.138;8.900;2023-06-24T01:40:28;16.80;99.90
19037;DHT22;9651;49.138;8.900;2023-06-24T01:44:32;16.70;99.90
19037;DHT22;9651;49.138;8.900;2023-06-24T01:48:39;16.70;99.90
19037;DHT22;9651;49.138;8.900;2023-06-24T01:52:44;16.70;99.90
19037;DHT22;9651;49.138;8.900;2023-06-24T01:56:48;16.70;99.90
19037;DHT22;9651;49.138;8.900;2023-06-24T02:00:52;16.60;99.90
19037;DHT22;9651;49.138;8.900;2023-06-24T02:04:56;16.60;99.90
19037;DHT22;9651;49.138;8.900;2023-06-24T02:08:59;16.70;99.90
19037;DHT22;9651;49.138;8.900;2023-06-24T02:13:04;16.70;99.90
19037;DHT22;9651;49.138;8.900;2023-06-24T02:17:09;16.70;99.90
19037;DHT22;9651;49.138;8.900;2023-06-24T02:21:14;16.60;99.90
19037;DHT22;9651;49.138;8.900;2023-06-24T02:25:20;16.50;99.90
19037;DHT22;9651;49.138;8.900;2023-06-24T02:29:22;16.30;99.90
19037;DHT22;9651;49.138;8.900;2023-06-24T02:33:26;16.20;99.90
19037;DHT22;9651;49.138;8.900;2023-06-24T02:37:29;16.10;99.90
19037;DHT22;9651;49.138;8.900;2023-06-24T02:41:31;16.10;99.90
19037;DHT22;9651;49.138;8.900;2023-06-24T02:45:33;16.20;99.90
19037;DHT22;9651;49.138;8.900;2023-06-24T02:49:36;16.30;99.90
19037;DHT22;9651;49.138;8.900;2023-06-24T02:53:41;16.30;99.90
19037;DHT22;9651;49.138;8.900;2023-06-24T02:57:46;16.30;99.90
19037;DHT22;9651;49.138;8.900;2023-06-24T03:02:08;16.30;99.90
19037;DHT22;9651;49.138;8.900;2023-06-24T03:06:11;16.20;99.90
19037;DHT22;9651;49.138;8.900;2023-06-24T03:10:17;16.20;99.90
19037;DHT22;9651;49.138;8.900;2023-06-24T03:14:20;16.20;99.90
19037;DHT22;9651;49.138;8.900;2023-06-24T03:18:22;16.20;99.90
19037;DHT22;9651;49.138;8.900;2023-06-24T03:22:24;16.20;99.90
19037;DHT22;9651;49.138;8.900;2023-06-24T03:26:34;16.20;99.90
19037;DHT22;9651;49.138;8.900;2023-06-24T03:30:37;16.20;99.90
19037;DHT22;9651;49.138;8.900;2023-06-24T03:34:39;16.10;99.90
19037;DHT22;9651;49.138;8.900;2023-06-24T03:38:44;16.10;99.90
19037;DHT22;9651;49.138;8.900;2023-06-24T03:42:47;16.10;99.90
19037;DHT22;9651;49.138;8.900;2023-06-24T03:46:49;16.10;99.90
19037;DHT22;9651;49.138;8.900;2023-06-24T03:50:51;16.10;99.90
19037;DHT22;9651;49.138;8.900;2023-06-24T03:54:54;16.20;99.90
19037;DHT22;9651;49.138;8.900;2023-06-24T03:58:57;16.20;99.90
19037;DHT22;9651;49.138;8.900;2023-06-24T04:03:00;16.20;99.90
19037;DHT22;9651;49.138;8.900;2023-06-24T04:07:03;16.40;99.90
19037;DHT22;9651;49.138;8.900;2023-06-24T04:11:06;16.40;99.90
19037;DHT22;9651;49.138;8.900;2023-06-24T04:15:10;16.50;99.90
19037;DHT22;9651;49.138;8.900;2023-06-24T04:19:12;16.70;99.90
19037;DHT22;9651;49.138;8.900;2023-06-24T04:23:14;16.90;99.90
19037;DHT22;9651;49.138;8.900;2023-06-24T04:27:18;17.10;99.90
19037;DHT22;9651;49.138;8.900;2023-06-24T04:31:21;17.30;99.90
19037;DHT22;9651;49.138;8.900;2023-06-24T04:35:24;17.40;99.90
19037;DHT22;9651;49.138;8.900;2023-06-24T04:39:26;17.60;99.90
19037;DHT22;9651;49.138;8.900;2023-06-24T04:43:27;17.80;99.90
19037;DHT22;9651;49.138;8.900;2023-06-24T04:47:31;17.80;99.90
19037;DHT22;9651;49.138;8.900;2023-06-24T04:51:33;17.90;99.90
19037;DHT22;9651;49.138;8.900;2023-06-24T04:55:35;18.00;99.90
19037;DHT22;9651;49.138;8.900;2023-06-24T04:59:37;18.20;99.90
19037;DHT22;9651;49.138;8.900;2023-06-24T05:03:41;18.50;99.90
19037;DHT22;9651;49.138;8.900;2023-06-24T05:07:43;18.80;99.90
19037;DHT22;9651;49.138;8.900;2023-06-24T05:11:45;19.20;99.90
19037;DHT22;9651;49.138;8.900;2023-06-24T05:15:47;19.60;99.90
19037;DHT22;9651;49.138;8.900;2023-06-24T05:19:50;20.00;99.90
19037;DHT22;9651;49.138;8.900;2023-06-24T05:23:52;20.60;99.90
19037;DHT22;9651;49.138;8.900;2023-06-24T05:27:54;21.00;99.90
19037;DHT22;9651;49.138;8.900;2023-06-24T05:31:56;21.40;99.90
19037;DHT22;9651;49.138;8.900;2023-06-24T05:35:59;21.20;99.90
19037;DHT22;9651;49.138;8.900;2023-06-24T05:40:01;21.50;99.90
19037;DHT22;9651;49.138;8.900;2023-06-24T05:44:07;21.90;99.90
19037;DHT22;9651;49.138;8.900;2023-06-24T05:48:10;22.30;99.90
19037;DHT22;9651;49.138;8.900;2023-06-24T05:52:13;22.80;99.90
19037;DHT22;9651;49.138;8.900;2023-06-24T05:56:15;23.10;99.90
19037;DHT22;9651;49.138;8.900;2023-06-24T06:00:18;23.50;99.90
19037;DHT22;9651;49.138;8.900;2023-06-24T06:04:20;23.60;99.90
19037;DHT22;9651;49.138;8.900;2023-06-24T06:08:23;23.70;99.90
19037;DHT22;9651;49.138;8.900;2023-06-24T06:12:25;24.00;99.90
19037;DHT22;9651;49.138;8.900;2023-06-24T06:16:27;24.40;99.90
19037;DHT22;9651;49.138;8.900;2023-06-24T06:20:29;24.60;99.90
19037;DHT22;9651;49.138;8.900;2023-06-24T06:24:32;24.70;99.90
19037;DHT22;9651;49.138;8.900;2023-06-24T06:28:34;25.10;99.90
19037;DHT22;9651;49.138;8.900;2023-06-24T06:32:36;25.30;99.90
19037;DHT22;9651;49.138;8.900;2023-06-24T06:36:38;25.50;99.90
19037;DHT22;9651;49.138;8.900;2023-06-24T06:40:42;25.70;99.90
19037;DHT22;9651;49.138;8.900;2023-06-24T06:44:43;26.00;99.90
19037;DHT22;9651;49.138;8.900;2023-06-24T06:48:45;26.20;99.90
19037;DHT22;9651;49.138;8.900;2023-06-24T06:52:47;26.60;99.90
19037;DHT22;9651;49.138;8.900;2023-06-24T06:56:50;25.70;99.90
19037;DHT22;9651;49.138;8.900;2023-06-24T07:00:53;25.80;99.90
19037;DHT22;9651;49.138;8.900;2023-06-24T07:04:54;26.50;99.90
19037;DHT22;9651;49.138;8.900;2023-06-24T07:08:56;26.60;99.90
19037;DHT22;9651;49.138;8.900;2023-06-24T07:13:00;26.90;99.90
19037;DHT22;9651;49.138;8.900;2023-06-24T07:17:03;27.50;99.90
19037;DHT22;9651;49.138;8.900;2023-06-24T07:21:04;27.50;99.90
19037;DHT22;9651;49.138;8.900;2023-06-24T07:25:07;27.90;99.90
19037;DHT22;9651;49.138;8.900;2023-06-24T07:29:10;28.40;99.90
19037;DHT22;9651;49.138;8.900;2023-06-24T07:33:12;28.70;99.90
19037;DHT22;9651;49.138;8.900;2023-06-24T07:37:14;28.90;99.90
19037;DHT22;9651;49.138;8.900;2023-06-24T07:41:16;29.10;99.90
19037;DHT22;9651;49.138;8.900;2023-06-24T07:45:19;29.30;99.90
19037;DHT22;9651;49.138;8.900;2023-06-24T07:49:21;29.80;99.90
19037;DHT22;9651;49.138;8.900;2023-06-24T07:53:23;29.70;99.90
19037;DHT22;9651;49.138;8.900;2023-06-24T07:57:26;29.60;99.90
19037;DHT22;9651;49.138;8.900;2023-06-24T08:01:29;30.30;99.90
19037;DHT22;9651;49.138;8.900;2023-06-24T08:05:31;30.90;98.80
19037;DHT22;9651;49.138;8.900;2023-06-24T08:09:33;31.40;98.00
19037;DHT22;9651;49.138;8.900;2023-06-24T08:13:35;31.50;96.40
19037;DHT22;9651;49.138;8.900;2023-06-24T08:17:38;31.50;96.50
19037;DHT22;9651;49.138;8.900;2023-06-24T08:21:40;31.60;93.70
19037;DHT22;9651;49.138;8.900;2023-06-24T08:25:42;32.10;94.60
19037;DHT22;9651;49.138;8.900;2023-06-24T08:29:44;32.70;92.00
19037;DHT22;9651;49.138;8.900;2023-06-24T08:33:47;32.20;90.60
19037;DHT22;9651;49.138;8.900;2023-06-24T08:37:53;32.70;92.20
19037;DHT22;9651;49.138;8.900;2023-06-24T08:41:55;33.20;91.00
19037;DHT22;9651;49.138;8.900;2023-06-24T08:45:57;33.70;90.20
19037;DHT22;9651;49.138;8.900;2023-06-24T08:50:03;34.30;87.80
19037;DHT22;9651;49.138;8.900;2023-06-24T08:54:07;34.90;83.90
19037;DHT22;9651;49.138;8.900;2023-06-24T08:58:11;35.30;80.40
19037;DHT22;9651;49.138;8.900;2023-06-24T09:02:13;35.00;77.10
19037;DHT22;9651;49.138;8.900;2023-06-24T09:06:16;34.50;77.00
19037;DHT22;9651;49.138;8.900;2023-06-24T09:10:31;34.20;72.50
19037;DHT22;9651;49.138;8.900;2023-06-24T09:14:34;34.80;72.50
19037;DHT22;9651;49.138;8.900;2023-06-24T09:18:36;35.40;71.90
19037;DHT22;9651;49.138;8.900;2023-06-24T09:22:41;36.00;68.50
19037;DHT22;9651;49.138;8.900;2023-06-24T09:26:43;36.50;67.50
19037;DHT22;9651;49.138;8.900;2023-06-24T09:30:46;36.80;62.40
19037;DHT22;9651;49.138;8.900;2023-06-24T09:34:48;36.10;63.80
19037;DHT22;9651;49.138;8.900;2023-06-24T09:38:51;34.10;63.90
19037;DHT22;9651;49.138;8.900;2023-06-24T09:42:55;34.20;65.20
19037;DHT22;9651;49.138;8.900;2023-06-24T09:46:57;34.80;64.10
19037;DHT22;9651;49.138;8.900;2023-06-24T09:51:00;35.70;64.60
19037;DHT22;9651;49.138;8.900;2023-06-24T09:55:04;36.80;63.10
19037;DHT22;9651;49.138;8.900;2023-06-24T09:59:07;37.20;60.40
19037;DHT22;9651;49.138;8.900;2023-06-24T10:03:09;36.70;59.10
19037;DHT22;9651;49.138;8.900;2023-06-24T10:07:12;36.70;59.10
19037;DHT22;9651;49.138;8.900;2023-06-24T10:11:16;35.80;59.10
19037;DHT22;9651;49.138;8.900;2023-06-24T10:15:18;36.60;60.20
19037;DHT22;9651;49.138;8.900;2023-06-24T10:19:20;37.60;58.00
19037;DHT22;9651;49.138;8.900;2023-06-24T10:23:23;37.00;57.50
19037;DHT22;9651;49.138;8.900;2023-06-24T10:27:38;37.50;58.20
19037;DHT22;9651;49.138;8.900;2023-06-24T10:31:53;37.80;55.80
19037;DHT22;9651;49.138;8.900;2023-06-24T10:35:56;38.10;54.80
19037;DHT22;9651;49.138;8.900;2023-06-24T10:39:58;38.40;54.90
19037;DHT22;9651;49.138;8.900;2023-06-24T10:44:14;38.30;53.90
19037;DHT22;9651;49.138;8.900;2023-06-24T10:48:17;39.30;53.10
19037;DHT22;9651;49.138;8.900;2023-06-24T10:52:21;39.30;52.10
19037;DHT22;9651;49.138;8.900;2023-06-24T10:56:30;39.60;51.70
19037;DHT22;9651;49.138;8.900;2023-06-24T11:00:33;40.00;51.50
19037;DHT22;9651;49.138;8.900;2023-06-24T11:04:42;39.90;51.00
19037;DHT22;9651;49.138;8.900;2023-06-24T11:08:44;40.80;49.20
19037;DHT22;9651;49.138;8.900;2023-06-24T11:12:47;38.70;49.70
19037;DHT22;9651;49.138;8.900;2023-06-24T11:16:51;38.20;50.50
19037;DHT22;9651;49.138;8.900;2023-06-24T11:20:54;38.10;51.20
19037;DHT22;9651;49.138;8.900;2023-06-24T11:24:56;39.60;50.20
19037;DHT22;9651;49.138;8.900;2023-06-24T11:28:58;40.70;48.60
19037;DHT22;9651;49.138;8.900;2023-06-24T11:33:01;40.70;48.60
19037;DHT22;9651;49.138;8.900;2023-06-24T11:37:10;41.00;48.60
19037;DHT22;9651;49.138;8.900;2023-06-24T11:41:12;40.70;48.40
19037;DHT22;9651;49.138;8.900;2023-06-24T11:45:20;41.10;47.80
19037;DHT22;9651;49.138;8.900;2023-06-24T11:49:23;41.80;47.50
19037;DHT22;9651;49.138;8.900;2023-06-24T11:53:29;42.50;46.40
19037;DHT22;9651;49.138;8.900;2023-06-24T11:57:52;42.90;45.30
19037;DHT22;9651;49.138;8.900;2023-06-24T12:01:54;42.70;43.60
19037;DHT22;9651;49.138;8.900;2023-06-24T12:05:57;41.90;43.30
19037;DHT22;9651;49.138;8.900;2023-06-24T12:09:59;41.90;42.70
19037;DHT22;9651;49.138;8.900;2023-06-24T12:14:01;42.30;41.90
19037;DHT22;9651;49.138;8.900;2023-06-24T12:18:03;43.20;42.10
19037;DHT22;9651;49.138;8.900;2023-06-24T12:22:07;43.50;42.00
19037;DHT22;9651;49.138;8.900;2023-06-24T12:26:09;44.60;43.00
19037;DHT22;9651;49.138;8.900;2023-06-24T12:30:11;44.30;41.60
19037;DHT22;9651;49.138;8.900;2023-06-24T12:34:13;43.50;41.60
19037;DHT22;9651;49.138;8.900;2023-06-24T12:38:16;44.10;41.30
19037;DHT22;9651;49.138;8.900;2023-06-24T12:42:18;44.20;40.90
19037;DHT22;9651;49.138;8.900;2023-06-24T12:46:20;45.10;40.30
19037;DHT22;9651;49.138;8.900;2023-06-24T12:50:22;45.60;40.40
19037;DHT22;9651;49.138;8.900;2023-06-24T12:54:25;45.60;39.10
19037;DHT22;9651;49.138;8.900;2023-06-24T12:58:27;46.60;39.50
19037;DHT22;9651;49.138;8.900;2023-06-24T13:02:30;46.90;38.20
19037;DHT22;9651;49.138;8.900;2023-06-24T13:06:32;46.00;38.80
19037;DHT22;9651;49.138;8.900;2023-06-24T13:10:36;46.20;38.30
19037;DHT22;9651;49.138;8.900;2023-06-24T13:14:38;46.50;38.30
19037;DHT22;9651;49.138;8.900;2023-06-24T13:18:40;45.00;38.40
19037;DHT22;9651;49.138;8.900;2023-06-24T13:22:42;44.80;38.50
19037;DHT22;9651;49.138;8.900;2023-06-24T13:45:26;43.80;38.40
19037;DHT22;9651;49.138;8.900;2023-06-24T13:49:28;46.20;38.70
19037;DHT22;9651;49.138;8.900;2023-06-24T13:53:30;45.70;38.20
19037;DHT22;9651;49.138;8.900;2023-06-24T13:57:32;45.50;38.40
19037;DHT22;9651;49.138;8.900;2023-06-24T14:01:35;44.50;39.00
19037;DHT22;9651;49.138;8.900;2023-06-24T14:05:37;44.50;39.20
19037;DHT22;9651;49.138;8.900;2023-06-24T14:09:39;45.00;38.90
19037;DHT22;9651;49.138;8.900;2023-06-24T14:13:41;45.50;39.40
19037;DHT22;9651;49.138;8.900;2023-06-24T14:17:45;45.70;39.10
19037;DHT22;9651;49.138;8.900;2023-06-24T14:21:46;45.70;39.10
19037;DHT22;9651;49.138;8.900;2023-06-24T14:25:48;44.90;39.40
19037;DHT22;9651;49.138;8.900;2023-06-24T14:29:50;44.70;39.50
19037;DHT22;9651;49.138;8.900;2023-06-24T14:33:53;44.70;39.30
19037;DHT22;9651;49.138;8.900;2023-06-24T14:37:55;45.40;39.40
19037;DHT22;9651;49.138;8.900;2023-06-24T14:41:57;46.30;39.40
19037;DHT22;9651;49.138;8.900;2023-06-24T14:45:59;45.50;38.90
19037;DHT22;9651;49.138;8.900;2023-06-24T14:50:03;45.40;39.10
19037;DHT22;9651;49.138;8.900;2023-06-24T14:54:05;45.70;39.20
19037;DHT22;9651;49.138;8.900;2023-06-24T14:58:07;44.30;39.20
19037;DHT22;9651;49.138;8.900;2023-06-24T15:02:09;44.30;40.00
19037;DHT22;9651;49.138;8.900;2023-06-24T15:06:12;44.30;39.90
19037;DHT22;9651;49.138;8.900;2023-06-24T15:10:14;44.80;40.10
19037;DHT22;9651;49.138;8.900;2023-06-24T15:14:16;44.20;39.80
19037;DHT22;9651;49.138;8.900;2023-06-24T15:18:18;43.90;40.50
19037;DHT22;9651;49.138;8.900;2023-06-24T15:22:21;44.00;40.20
19037;DHT22;9651;49.138;8.900;2023-06-24T15:26:24;43.30;40.10
19037;DHT22;9651;49.138;8.900;2023-06-24T15:30:25;43.30;40.10
19037;DHT22;9651;49.138;8.900;2023-06-24T15:34:28;43.90;40.20
19037;DHT22;9651;49.138;8.900;2023-06-24T15:38:31;44.30;39.40
19037;DHT22;9651;49.138;8.900;2023-06-24T15:42:33;44.30;39.60
19037;DHT22;9651;49.138;8.900;2023-06-24T15:46:35;43.50;40.40
19037;DHT22;9651;49.138;8.900;2023-06-24T15:50:37;42.80;40.50
19037;DHT22;9651;49.138;8.900;2023-06-24T15:54:41;42.30;41.00
19037;DHT22;9651;49.138;8.900;2023-06-24T15:58:43;41.40;41.50
19037;DHT22;9651;49.138;8.900;2023-06-24T16:02:45;41.10;41.00
19037;DHT22;9651;49.138;8.900;2023-06-24T16:06:47;41.40;41.30
19037;DHT22;9651;49.138;8.900;2023-06-24T16:10:50;41.20;41.70
19037;DHT22;9651;49.138;8.900;2023-06-24T16:14:52;40.20;42.40
19037;DHT22;9651;49.138;8.900;2023-06-24T16:18:54;39.80;41.80
19037;DHT22;9651;49.138;8.900;2023-06-24T16:22:56;39.60;42.00
19037;DHT22;9651;49.138;8.900;2023-06-24T16:26:59;39.00;42.40
19037;DHT22;9651;49.138;8.900;2023-06-24T16:31:01;38.30;43.10
19037;DHT22;9651;49.138;8.900;2023-06-24T16:35:04;37.60;43.50
19037;DHT22;9651;49.138;8.900;2023-06-24T16:39:08;37.10;43.60
19037;DHT22;9651;49.138;8.900;2023-06-24T16:43:11;36.00;44.50
19037;DHT22;9651;49.138;8.900;2023-06-24T16:47:13;35.00;44.70
19037;DHT22;9651;49.138;8.900;2023-06-24T16:51:15;34.00;45.60
19037;DHT22;9651;49.138;8.900;2023-06-24T16:55:17;33.30;46.80
19037;DHT22;9651;49.138;8.900;2023-06-24T16:59:20;32.70;47.30
19037;DHT22;9651;49.138;8.900;2023-06-24T17:03:22;32.20;47.80
19037;DHT22;9651;49.138;8.900;2023-06-24T17:07:24;31.60;47.40
19037;DHT22;9651;49.138;8.900;2023-06-24T17:11:26;31.20;48.30
19037;DHT22;9651;49.138;8.900;2023-06-24T17:15:29;31.00;48.90
19037;DHT22;9651;49.138;8.900;2023-06-24T17:19:31;30.60;49.60
19037;DHT22;9651;49.138;8.900;2023-06-24T17:23:33;30.40;49.90
19037;DHT22;9651;49.138;8.900;2023-06-24T17:27:35;30.40;50.50
19037;DHT22;9651;49.138;8.900;2023-06-24T17:31:38;30.20;50.20
19037;DHT22;9651;49.138;8.900;2023-06-24T17:35:40;30.10;50.30
19037;DHT22;9651;49.138;8.900;2023-06-24T17:39:42;29.80;50.90
19037;DHT22;9651;49.138;8.900;2023-06-24T17:43:44;29.70;51.10
19037;DHT22;9651;49.138;8.900;2023-06-24T17:47:47;29.70;51.50
19037;DHT22;9651;49.138;8.900;2023-06-24T17:51:49;29.70;51.00
19037;DHT22;9651;49.138;8.900;2023-06-24T17:55:51;29.70;52.00
19037;DHT22;9651;49.138;8.900;2023-06-24T17:59:53;29.70;52.40
19037;DHT22;9651;49.138;8.900;2023-06-24T18:03:56;29.60;52.30
19037;DHT22;9651;49.138;8.900;2023-06-24T18:07:58;29.50;53.90
19037;DHT22;9651;49.138;8.900;2023-06-24T18:12:00;29.30;54.60
19037;DHT22;9651;49.138;8.900;2023-06-24T18:16:02;29.10;54.20
19037;DHT22;9651;49.138;8.900;2023-06-24T18:20:06;28.90;53.60
19037;DHT22;9651;49.138;8.900;2023-06-24T18:24:08;28.80;54.00
19037;DHT22;9651;49.138;8.900;2023-06-24T18:28:10;28.80;53.70
19037;DHT22;9651;49.138;8.900;2023-06-24T18:32:12;28.70;54.50
19037;DHT22;9651;49.138;8.900;2023-06-24T18:36:15;28.70;54.30
19037;DHT22;9651;49.138;8.900;2023-06-24T18:40:17;28.60;54.90
19037;DHT22;9651;49.138;8.900;2023-06-24T18:44:19;28.50;55.20
19037;DHT22;9651;49.138;8.900;2023-06-24T18:48:21;28.40;55.60
19037;DHT22;9651;49.138;8.900;2023-06-24T18:52:24;28.30;55.20
19037;DHT22;9651;49.138;8.900;2023-06-24T18:56:26;28.10;55.50
19037;DHT22;9651;49.138;8.900;2023-06-24T19:00:28;28.00;56.30
19037;DHT22;9651;49.138;8.900;2023-06-24T19:04:30;27.90;56.80
19037;DHT22;9651;49.138;8.900;2023-06-24T19:08:33;27.80;57.50
19037;DHT22;9651;49.138;8.900;2023-06-24T19:12:35;27.60;59.00
19037;DHT22;9651;49.138;8.900;2023-06-24T19:16:37;27.40;60.40
19037;DHT22;9651;49.138;8.900;2023-06-24T19:20:39;27.10;62.00
19037;DHT22;9651;49.138;8.900;2023-06-24T19:24:42;26.90;63.70
19037;DHT22;9651;49.138;8.900;2023-06-24T19:28:44;26.60;64.80
19037;DHT22;9651;49.138;8.900;2023-06-24T19:32:46;26.40;66.30
19037;DHT22;9651;49.138;8.900;2023-06-24T19:36:48;26.10;68.20
19037;DHT22;9651;49.138;8.900;2023-06-24T19:40:51;25.80;69.30
19037;DHT22;9651;49.138;8.900;2023-06-24T19:59:25;25.50;70.20
19037;DHT22;9651;49.138;8.900;2023-06-24T20:03:27;24.80;77.20
19037;DHT22;9651;49.138;8.900;2023-06-24T20:07:29;24.60;77.50
19037;DHT22;9651;49.138;8.900;2023-06-24T20:24:13;24.50;79.80
19037;DHT22;9651;49.138;8.900;2023-06-24T20:28:15;23.90;87.40
19037;DHT22;9651;49.138;8.900;2023-06-24T20:32:16;23.90;89.10
19037;DHT22;9651;49.138;8.900;2023-06-24T20:36:18;23.80;90.30
19037;DHT22;9651;49.138;8.900;2023-06-24T20:40:21;23.70;91.20
19037;DHT22;9651;49.138;8.900;2023-06-24T20:44:23;23.60;91.90
19037;DHT22;9651;49.138;8.900;2023-06-24T20:48:25;23.50;92.70
19037;DHT22;9651;49.138;8.900;2023-06-24T20:52:27;23.40;94.10
19037;DHT22;9651;49.138;8.900;2023-06-24T20:56:30;23.30;94.80
19037;DHT22;9651;49.138;8.900;2023-06-24T21:00:32;23.20;95.60
19037;DHT22;9651;49.138;8.900;2023-06-24T21:04:34;23.10;96.80
19037;DHT22;9651;49.138;8.900;2023-06-24T21:08:36;23.00;97.50
19037;DHT22;9651;49.138;8.900;2023-06-24T21:12:40;22.90;98.30
19037;DHT22;9651;49.138;8.900;2023-06-24T21:16:41;22.80;98.90
19037;DHT22;9651;49.138;8.900;2023-06-24T21:20:43;22.70;99.90
19037;DHT22;9651;49.138;8.900;2023-06-24T21:24:45;22.60;99.90
19037;DHT22;9651;49.138;8.900;2023-06-24T21:28:48;22.50;99.90
19037;DHT22;9651;49.138;8.900;2023-06-24T21:32:50;22.40;99.90
19037;DHT22;9651;49.138;8.900;2023-06-24T21:36:52;22.30;99.90
19037;DHT22;9651;49.138;8.900;2023-06-24T21:40:54;22.20;99.90
19037;DHT22;9651;49.138;8.900;2023-06-24T21:44:57;22.30;99.90
19037;DHT22;9651;49.138;8.900;2023-06-24T21:48:59;22.10;99.90
19037;DHT22;9651;49.138;8.900;2023-06-24T21:53:02;22.00;99.90
19037;DHT22;9651;49.138;8.900;2023-06-24T21:57:04;21.90;99.90
19037;DHT22;9651;49.138;8.900;2023-06-24T22:01:07;21.80;99.90
19037;DHT22;9651;49.138;8.900;2023-06-24T22:05:10;21.70;99.90
19037;DHT22;9651;49.138;8.900;2023-06-24T22:09:12;21.30;99.90
19037;DHT22;9651;49.138;8.900;2023-06-24T22:13:15;21.00;99.90
19037;DHT22;9651;49.138;8.900;2023-06-24T22:17:18;20.80;99.90
19037;DHT22;9651;49.138;8.900;2023-06-24T22:21:20;20.70;99.90
19037;DHT22;9651;49.138;8.900;2023-06-24T22:25:22;20.80;99.90
19037;DHT22;9651;49.138;8.900;2023-06-24T22:29:24;20.80;99.90
19037;DHT22;9651;49.138;8.900;2023-06-24T22:33:29;20.90;99.90
19037;DHT22;9651;49.138;8.900;2023-06-24T22:37:31;20.80;99.90
19037;DHT22;9651;49.138;8.900;2023-06-24T22:41:33;20.70;99.90
19037;DHT22;9651;49.138;8.900;2023-06-24T22:45:35;20.50;99.90
19037;DHT22;9651;49.138;8.900;2023-06-24T22:49:38;20.50;99.90
19037;DHT22;9651;49.138;8.900;2023-06-24T22:53:40;20.50;99.90
19037;DHT22;9651;49.138;8.900;2023-06-24T22:57:42;20.60;99.90
19037;DHT22;9651;49.138;8.900;2023-06-24T23:01:44;20.60;99.90
19037;DHT22;9651;49.138;8.900;2023-06-24T23:05:48;20.60;99.90
19037;DHT22;9651;49.138;8.900;2023-06-24T23:09:50;20.50;99.90
19037;DHT22;9651;49.138;8.900;2023-06-24T23:13:52;20.40;99.90
19037;DHT22;9651;49.138;8.900;2023-06-24T23:17:54;20.40;99.90
19037;DHT22;9651;49.138;8.900;2023-06-24T23:21:58;20.40;99.90
19037;DHT22;9651;49.138;8.900;2023-06-24T23:26:04;20.40;99.90
19037;DHT22;9651;49.138;8.900;2023-06-24T23:30:10;20.40;99.90
19037;DHT22;9651;49.138;8.900;2023-06-24T23:34:13;20.30;99.90
19037;DHT22;9651;49.138;8.900;2023-06-24T23:38:19;20.30;99.90
19037;DHT22;9651;49.138;8.900;2023-06-24T23:42:21;20.20;99.90
19037;DHT22;9651;49.138;8.900;2023-06-24T23:46:24;20.10;99.90
19037;DHT22;9651;49.138;8.900;2023-06-24T23:50:26;20.00;99.90
19037;DHT22;9651;49.138;8.900;2023-06-24T23:54:30;19.90;99.90
19037;DHT22;9651;49.138;8.900;2023-06-24T23:58:31;19.80;99.90
